Kezdőlap
METAR-TAF:

METAR-TAF

Repülőterek :

Vineyard Haven, Massachusetts, Amerikai Egyesült Államok

földrajzi szélesség: 41-23-32N, földrajzi hosszúság: 070-37-00W, magasság: 20 m

Jelenlegi meteorológiai megfigyelések

A jelentés 32 perccel ezelõtt készült, 17:53 UTC
Dél-délnyugati szél 12 kt
Hőmérséklet 10°C
Páratartalom 43%
Légköri nyomás 1020 hPa
Látótávolság: 16.1 km
Derült ég

METAR: KMVY 231753Z 21012KT 10SM CLR 10/M02 A3013 RMK AO2 SLP202 T01001022 10111 21017 58019

Idő: 13:25 (18:25 UTC)


TAF: hiányzik

Meteorológiai megfigyelések és előrejelzések több, mint 4000 repülőtéren (METAR és TAF jelentéseket).

A térképen piros és sárga pontok jelzik az elérhető meteorológiai állomásokat.

Mozgassa az egeret a pont fölött, hogy megjelenjen az állomás neve.

Azután kattintson az időjárási megfigyelések és előrejelzések megtekintéséhez.

A térkép megváltoztatása: kattintson a fekete keresztel jelölt zöld gombra ráközelítéshez, a vonallal jelölt zöld gombra távolításhoz, vagy a zöld nyilakra a szomszédos térképek eléréséhez.


METAR-TAF: